Time;durP1;ratioP1;P1;durP2;ratioP2;P2;SDS_P1;SDS_P2;PMS_P1;PMS_P2;Temp;Humidity;BMP_temperature;BMP_pressure;BME280_temperature;BME280_humidity;BME280_pressure;Samples;Min_cycle;Max_cycle;Signal;HPM_P1;HPM_P2
2020/12/20 00:00:39;;;;;;;3.60;2.20;;;22.20;51.80;;;;;;5096974;28;20260;-69
2020/12/20 00:03:05;;;;;;;3.27;2.63;;;22.20;51.80;;;;;;5096653;28;20920;-69
2020/12/20 00:05:31;;;;;;;3.87;2.47;;;22.20;51.80;;;;;;5096486;28;20194;-69
2020/12/20 00:07:56;;;;;;;2.73;2.53;;;22.20;51.90;;;;;;5096567;28;20170;-69
2020/12/20 00:10:23;;;;;;;3.33;2.53;;;22.20;51.90;;;;;;5096490;28;20359;-69
2020/12/20 00:12:49;;;;;;;3.10;2.67;;;22.20;51.90;;;;;;5096400;28;20197;-69
2020/12/20 00:15:16;;;;;;;2.60;2.40;;;22.20;51.90;;;;;;5096641;28;20410;-69
2020/12/20 00:17:46;;;;;;;3.27;2.60;;;22.10;51.90;;;;;;5096400;28;20174;-69
2020/12/20 00:20:12;;;;;;;2.90;2.43;;;22.10;51.90;;;;;;5096356;28;20403;-69
2020/12/20 00:22:37;;;;;;;3.00;2.40;;;22.20;52.00;;;;;;5096260;28;20488;-69
2020/12/20 00:25:03;;;;;;;2.40;2.10;;;22.10;51.90;;;;;;5096183;28;20176;-69
2020/12/20 00:27:29;;;;;;;4.03;2.67;;;22.10;52.00;;;;;;5096188;28;20586;-69
2020/12/20 00:29:55;;;;;;;2.53;2.00;;;22.20;52.00;;;;;;5096161;28;20185;-69
2020/12/20 00:32:20;;;;;;;3.13;2.17;;;22.20;52.00;;;;;;5096016;28;20186;-69
2020/12/20 00:34:46;;;;;;;2.60;2.40;;;22.20;52.00;;;;;;5096306;28;20234;-69
2020/12/20 00:37:13;;;;;;;3.20;2.03;;;22.10;52.00;;;;;;5096231;28;20695;-69
2020/12/20 00:39:39;;;;;;;3.23;2.23;;;22.10;52.00;;;;;;5095953;28;20542;-69
2020/12/20 00:42:06;;;;;;;3.10;2.50;;;22.10;52.00;;;;;;5095780;28;20435;-69
2020/12/20 00:44:32;;;;;;;2.37;2.03;;;22.10;52.00;;;;;;5095835;28;20407;-69
2020/12/20 00:46:59;;;;;;;2.57;2.20;;;22.10;52.00;;;;;;5077653;28;20890;-69
2020/12/20 00:49:26;;;;;;;3.73;2.43;;;22.10;52.00;;;;;;5077583;28;20472;-69
2020/12/20 00:51:56;;;;;;;2.93;2.63;;;22.10;52.00;;;;;;5095574;28;20403;-69
2020/12/20 00:54:21;;;;;;;2.43;1.70;;;22.10;52.00;;;;;;5095656;28;20827;-69
2020/12/20 00:56:47;;;;;;;4.00;2.60;;;22.10;52.10;;;;;;5095822;28;20403;-70
2020/12/20 00:59:13;;;;;;;2.93;2.50;;;22.10;52.10;;;;;;5095436;28;20226;-69
2020/12/20 01:01:39;;;;;;;3.43;2.43;;;22.10;52.10;;;;;;5095456;28;20219;-69
2020/12/20 01:04:05;;;;;;;3.93;2.00;;;22.10;52.10;;;;;;5095488;28;20408;-70
2020/12/20 01:06:31;;;;;;;2.93;2.27;;;22.10;52.10;;;;;;5095559;28;20512;-69
2020/12/20 01:08:56;;;;;;;2.23;2.03;;;22.10;52.10;;;;;;5095197;28;20403;-70
2020/12/20 01:11:22;;;;;;;1.93;1.73;;;22.10;52.10;;;;;;5095347;28;20242;-69
2020/12/20 01:13:49;;;;;;;2.27;2.07;;;22.10;52.10;;;;;;5095274;28;20189;-69
2020/12/20 01:16:26;;;;;;;3.70;2.23;;;22.10;52.10;;;;;;5095239;28;20223;-69
2020/12/20 01:18:52;;;;;;;3.27;2.43;;;22.10;52.10;;;;;;5095162;28;20452;-69
2020/12/20 01:21:18;;;;;;;3.17;2.17;;;22.10;52.10;;;;;;5095163;28;20404;-69
2020/12/20 01:23:45;;;;;;;2.73;2.27;;;22.10;52.20;;;;;;5095020;28;20428;-69
2020/12/20 01:26:11;;;;;;;2.70;2.03;;;22.10;52.10;;;;;;5094999;28;20953;-69
2020/12/20 01:28:37;;;;;;;3.00;2.37;;;22.00;52.10;;;;;;5076782;28;20499;-69
2020/12/20 01:31:14;;;;;;;2.30;2.10;;;22.10;52.20;;;;;;5095009;28;20435;-69
2020/12/20 01:33:42;;;;;;;2.20;2.00;;;22.10;52.10;;;;;;5094841;28;20434;-69
2020/12/20 01:36:10;;;;;;;2.63;2.17;;;22.00;52.10;;;;;;5094798;28;20411;-69
2020/12/20 01:38:36;;;;;;;3.13;2.13;;;22.00;52.10;;;;;;5094591;28;20450;-69
2020/12/20 01:41:03;;;;;;;2.10;1.90;;;22.00;52.10;;;;;;5094743;28;20871;-69
2020/12/20 01:43:47;;;;;;;2.70;2.43;;;22.10;52.20;;;;;;5094941;28;20427;-69
2020/12/20 01:46:14;;;;;;;2.40;2.20;;;22.10;52.20;;;;;;5094587;28;20435;-69
2020/12/20 01:48:41;;;;;;;2.10;1.90;;;22.00;52.20;;;;;;5094518;28;20451;-69
2020/12/20 01:51:08;;;;;;;2.77;2.00;;;22.00;52.20;;;;;;5094537;28;20404;-69
2020/12/20 01:53:35;;;;;;;2.47;2.17;;;22.00;52.20;;;;;;5094655;28;20480;-69
2020/12/20 01:56:02;;;;;;;2.60;2.20;;;22.00;52.20;;;;;;5094792;28;20394;-69
2020/12/20 01:58:28;;;;;;;2.60;2.40;;;22.00;52.20;;;;;;5094621;28;20775;-69
2020/12/20 02:00:55;;;;;;;2.53;1.80;;;22.00;52.20;;;;;;5076161;28;20515;-69
2020/12/20 02:03:23;;;;;;;2.83;2.20;;;22.00;52.20;;;;;;5094583;28;20698;-69
2020/12/20 02:05:49;;;;;;;2.20;2.00;;;22.00;52.20;;;;;;5094227;28;20466;-69
2020/12/20 02:08:17;;;;;;;2.90;2.13;;;22.00;52.20;;;;;;5094509;28;20961;-69
2020/12/20 02:10:42;;;;;;;2.30;2.07;;;22.00;52.20;;;;;;5094184;28;20385;-69
2020/12/20 02:13:08;;;;;;;3.07;2.50;;;22.00;52.20;;;;;;5094045;28;21005;-69
2020/12/20 02:15:34;;;;;;;2.07;1.87;;;22.00;52.20;;;;;;5094053;28;20258;-69
2020/12/20 02:18:00;;;;;;;2.30;2.03;;;22.00;52.30;;;;;;5094034;28;20483;-69
2020/12/20 02:20:26;;;;;;;2.10;1.90;;;22.00;52.20;;;;;;5093815;28;20194;-68
2020/12/20 02:22:56;;;;;;;1.97;1.80;;;22.00;52.30;;;;;;5093559;28;20185;-69
2020/12/20 02:25:24;;;;;;;2.70;1.80;;;22.00;52.80;;;;;;5093845;28;20181;-69
2020/12/20 02:27:50;;;;;;;2.17;1.80;;;22.00;52.30;;;;;;5093914;28;20394;-69
2020/12/20 02:30:16;;;;;;;2.30;2.10;;;22.00;52.20;;;;;;5093844;28;20407;-68
2020/12/20 02:32:42;;;;;;;2.30;1.87;;;22.00;52.20;;;;;;5093623;28;20424;-69
2020/12/20 02:35:07;;;;;;;2.00;1.57;;;22.00;52.30;;;;;;5093843;28;20494;-68
2020/12/20 02:37:33;;;;;;;4.23;2.23;;;22.00;52.30;;;;;;5093693;28;20161;-69
2020/12/20 02:40:00;;;;;;;2.80;1.97;;;22.00;52.20;;;;;;5093480;28;20185;-69
2020/12/20 02:42:25;;;;;;;3.50;2.50;;;22.00;52.30;;;;;;5093503;28;20208;-69
2020/12/20 02:44:51;;;;;;;3.17;2.43;;;22.00;52.30;;;;;;5093562;28;20894;-69
2020/12/20 02:47:17;;;;;;;2.60;2.07;;;22.00;52.30;;;;;;5093510;28;20598;-69
2020/12/20 02:49:42;;;;;;;3.53;2.17;;;22.00;52.30;;;;;;5093512;28;20271;-69
2020/12/20 02:52:08;;;;;;;2.13;1.93;;;22.00;52.30;;;;;;5093458;28;20229;-69
2020/12/20 02:54:33;;;;;;;2.50;1.87;;;22.00;52.30;;;;;;5075285;28;20170;-69
2020/12/20 02:56:59;;;;;;;2.03;1.70;;;22.00;52.30;;;;;;5093408;28;20170;-69
2020/12/20 02:59:24;;;;;;;2.80;2.07;;;22.00;52.30;;;;;;5093650;28;20173;-69
2020/12/20 03:01:51;;;;;;;2.70;2.20;;;22.00;52.30;;;;;;5093257;28;20227;-69
2020/12/20 03:04:17;;;;;;;2.87;2.30;;;22.00;52.30;;;;;;5105928;22;20221;-69
2020/12/20 03:06:43;;;;;;;1.90;1.80;;;22.00;52.30;;;;;;5113520;28;20525;-69
2020/12/20 03:09:08;;;;;;;2.47;2.00;;;21.90;52.20;;;;;;5113566;28;20411;-69
2020/12/20 03:11:34;;;;;;;1.87;1.70;;;21.90;52.30;;;;;;5113574;28;20191;-69
2020/12/20 03:13:59;;;;;;;2.50;1.50;;;22.00;52.30;;;;;;5113502;28;20188;-69
2020/12/20 03:16:25;;;;;;;2.57;1.80;;;22.00;52.30;;;;;;5113814;28;20173;-69
2020/12/20 03:18:51;;;;;;;3.10;2.10;;;21.90;52.30;;;;;;5113449;28;20713;-69
2020/12/20 03:21:16;;;;;;;2.80;1.90;;;21.90;52.30;;;;;;5113522;28;20171;-69
2020/12/20 03:23:42;;;;;;;2.07;1.80;;;22.00;52.30;;;;;;5113691;28;20185;-69
2020/12/20 03:26:08;;;;;;;3.17;2.30;;;22.00;52.40;;;;;;5113321;28;20195;-69
2020/12/20 03:28:34;;;;;;;2.70;1.90;;;22.00;52.40;;;;;;5113791;28;20165;-69
2020/12/20 03:31:00;;;;;;;2.67;2.10;;;22.00;52.40;;;;;;5113368;28;20935;-69
2020/12/20 03:33:26;;;;;;;2.27;1.77;;;21.90;52.30;;;;;;5114495;28;20184;-70
2020/12/20 03:35:52;;;;;;;2.17;1.97;;;21.90;52.30;;;;;;5117586;28;20969;-69
2020/12/20 03:38:17;;;;;;;2.20;1.97;;;21.90;52.30;;;;;;5117576;28;20411;-69
2020/12/20 03:40:43;;;;;;;1.77;1.60;;;22.00;52.30;;;;;;5117477;28;20173;-69
2020/12/20 03:43:09;;;;;;;2.47;2.10;;;21.90;52.30;;;;;;5117383;28;20188;-69
2020/12/20 03:45:34;;;;;;;2.33;2.13;;;22.00;52.30;;;;;;5116016;28;20196;-69
2020/12/20 03:48:00;;;;;;;2.10;1.90;;;21.90;52.30;;;;;;5117052;28;20317;-69
2020/12/20 03:50:26;;;;;;;1.80;1.60;;;22.00;52.40;;;;;;5116912;28;20184;-69
2020/12/20 03:52:51;;;;;;;2.67;1.97;;;21.90;52.30;;;;;;5117261;28;20196;-69
2020/12/20 03:55:17;;;;;;;2.20;2.00;;;22.00;52.40;;;;;;5117267;28;20193;-69
2020/12/20 03:57:43;;;;;;;1.73;1.60;;;21.90;52.30;;;;;;5117123;28;20256;-69
2020/12/20 04:00:08;;;;;;;2.50;1.77;;;22.00;52.30;;;;;;5117181;28;20193;-69
2020/12/20 04:02:34;;;;;;;2.30;1.70;;;22.00;52.40;;;;;;5116945;28;20185;-69
2020/12/20 04:04:59;;;;;;;2.27;2.07;;;21.90;52.30;;;;;;5116874;28;20187;-69
2020/12/20 04:07:25;;;;;;;1.83;1.73;;;21.90;52.30;;;;;;5116798;28;20224;-69
2020/12/20 04:09:51;;;;;;;2.73;1.90;;;21.90;52.30;;;;;;5116857;28;20196;-69
2020/12/20 04:12:16;;;;;;;2.23;1.73;;;21.90;52.30;;;;;;5116893;28;20196;-69
2020/12/20 04:14:43;;;;;;;3.13;2.10;;;22.00;52.40;;;;;;5116995;28;20169;-69
2020/12/20 04:17:09;;;;;;;2.13;1.63;;;21.90;52.30;;;;;;5116885;28;20165;-69
2020/12/20 04:19:34;;;;;;;2.37;2.10;;;21.90;52.30;;;;;;5116555;28;20506;-69
2020/12/20 04:22:00;;;;;;;1.80;1.60;;;21.90;52.30;;;;;;5116636;28;20242;-69
2020/12/20 04:24:25;;;;;;;2.30;1.77;;;21.90;52.30;;;;;;5116462;28;20261;-69
2020/12/20 04:26:51;;;;;;;2.00;1.80;;;21.90;52.30;;;;;;5114840;28;20200;-69
2020/12/20 04:29:17;;;;;;;2.13;1.80;;;21.90;52.30;;;;;;5116610;28;20165;-69
2020/12/20 04:31:42;;;;;;;2.93;1.87;;;21.90;52.30;;;;;;5116677;28;20171;-69
2020/12/20 04:34:08;;;;;;;1.90;1.60;;;21.90;52.40;;;;;;5116452;28;20165;-69
2020/12/20 04:36:34;;;;;;;2.20;1.77;;;21.90;52.40;;;;;;5116458;28;20161;-69
2020/12/20 04:38:59;;;;;;;1.77;1.57;;;21.90;53.00;;;;;;5116626;28;20168;-69
2020/12/20 04:41:25;;;;;;;2.43;1.80;;;21.90;52.40;;;;;;5116596;28;20655;-70
2020/12/20 04:43:52;;;;;;;2.60;1.77;;;21.90;52.40;;;;;;5115683;28;20193;-69
2020/12/20 04:46:19;;;;;;;1.70;1.60;;;21.90;52.40;;;;;;5116412;28;20453;-69
2020/12/20 04:48:46;;;;;;;2.80;1.87;;;21.90;52.40;;;;;;5116210;28;20403;-69
2020/12/20 04:51:12;;;;;;;2.20;1.60;;;21.90;52.40;;;;;;5116125;28;20440;-69
2020/12/20 04:53:38;;;;;;;1.60;1.47;;;21.90;52.40;;;;;;5114718;28;20480;-69
2020/12/20 04:56:11;;;;;;;2.03;1.70;;;21.90;52.40;;;;;;5116036;28;20411;-69
2020/12/20 04:58:38;;;;;;;1.90;1.67;;;21.90;52.40;;;;;;5116206;27;20403;-69
2020/12/20 05:01:05;;;;;;;1.23;1.13;;;21.80;52.40;;;;;;5116018;28;20398;-69
2020/12/20 05:03:31;;;;;;;2.00;1.60;;;21.80;52.40;;;;;;5115587;28;20483;-70
2020/12/20 05:05:57;;;;;;;2.30;1.87;;;21.80;52.50;;;;;;5115577;28;20960;-69
2020/12/20 05:08:23;;;;;;;2.97;1.80;;;21.80;52.50;;;;;;5116020;28;20840;-69
2020/12/20 05:10:51;;;;;;;2.60;2.00;;;21.80;52.50;;;;;;5115746;28;20777;-69
2020/12/20 05:13:17;;;;;;;2.47;1.70;;;21.80;52.50;;;;;;5113743;28;20434;-71
2020/12/20 05:15:44;;;;;;;2.00;1.40;;;21.70;52.50;;;;;;5115387;28;20816;-69
2020/12/20 05:18:14;;;;;;;1.73;1.50;;;21.70;52.50;;;;;;5115699;28;20844;-69
2020/12/20 05:20:40;;;;;;;2.07;1.70;;;21.70;52.40;;;;;;5115897;28;20391;-69
2020/12/20 05:23:07;;;;;;;2.07;1.87;;;21.70;52.50;;;;;;5115407;28;20427;-69
2020/12/20 05:25:34;;;;;;;2.17;1.70;;;21.80;53.10;;;;;;5115358;28;20446;-69
2020/12/20 05:28:21;;;;;;;1.73;1.63;;;21.70;52.40;;;;;;5115439;28;20407;-69
2020/12/20 05:30:48;;;;;;;2.93;1.60;;;21.80;52.50;;;;;;5115309;28;20948;-69
2020/12/20 05:33:28;;;;;;;1.60;1.50;;;21.80;52.50;;;;;;5115375;28;20433;-69
2020/12/20 05:36:07;;;;;;;2.10;1.80;;;21.80;52.50;;;;;;5115291;28;20406;-69
2020/12/20 05:38:35;;;;;;;1.83;1.50;;;21.80;52.50;;;;;;5115262;28;20414;-69
2020/12/20 05:41:01;;;;;;;1.97;1.47;;;21.80;52.50;;;;;;5115183;28;20446;-69
2020/12/20 05:43:28;;;;;;;1.50;1.40;;;21.80;52.50;;;;;;5115078;28;20430;-69
2020/12/20 05:45:55;;;;;;;2.00;1.70;;;21.80;52.50;;;;;;5115057;28;20602;-69
2020/12/20 05:48:31;;;;;;;2.20;1.80;;;21.80;53.00;;;;;;5115037;28;20399;-69
2020/12/20 05:51:08;;;;;;;1.83;1.63;;;21.80;52.50;;;;;;5115017;28;20383;-69
2020/12/20 05:53:34;;;;;;;2.80;1.80;;;21.80;52.40;;;;;;5114917;28;20793;-69
2020/12/20 05:56:03;;;;;;;2.43;1.70;;;21.80;52.40;;;;;;5113935;28;20403;-69
2020/12/20 05:58:30;;;;;;;1.73;1.60;;;21.80;52.40;;;;;;5112157;28;20407;-69
2020/12/20 06:00:57;;;;;;;2.47;1.83;;;21.80;52.40;;;;;;5114762;28;20403;-69
2020/12/20 06:03:23;;;;;;;1.67;1.57;;;21.80;52.40;;;;;;5113458;28;20458;-70
2020/12/20 06:05:49;;;;;;;2.60;1.50;;;21.80;52.40;;;;;;5114523;28;20466;-69
2020/12/20 06:08:20;;;;;;;2.90;1.63;;;21.80;52.40;;;;;;5114653;28;20889;-69
2020/12/20 06:10:50;;;;;;;2.03;1.70;;;21.90;52.40;;;;;;5114936;28;20567;-69
2020/12/20 06:13:21;;;;;;;1.50;1.40;;;21.90;52.40;;;;;;5114683;28;20422;-69
2020/12/20 06:15:56;;;;;;;2.13;1.60;;;21.90;52.40;;;;;;5114494;28;20963;-69
2020/12/20 06:18:30;;;;;;;2.13;1.70;;;21.90;52.40;;;;;;5114708;28;20401;-69
2020/12/20 06:21:01;;;;;;;2.00;1.67;;;21.80;52.30;;;;;;5114450;28;20768;-69
2020/12/20 06:23:33;;;;;;;1.50;1.17;;;21.90;52.40;;;;;;5114282;28;20979;-69
2020/12/20 06:26:03;;;;;;;1.50;1.40;;;21.90;52.40;;;;;;5114583;28;20533;-69
2020/12/20 06:28:31;;;;;;;2.07;1.70;;;21.80;52.30;;;;;;5114610;28;20827;-69
2020/12/20 06:30:58;;;;;;;2.00;1.80;;;21.90;52.40;;;;;;5114511;28;20403;-69
2020/12/20 06:33:49;;;;;;;2.27;1.87;;;21.90;52.40;;;;;;5114128;28;20506;-69
2020/12/20 06:36:16;;;;;;;2.40;1.40;;;21.90;52.40;;;;;;5114512;28;20387;-69
2020/12/20 06:38:54;;;;;;;2.23;1.50;;;21.80;52.30;;;;;;5114080;28;20489;-69
2020/12/20 06:41:36;;;;;;;2.90;1.47;;;21.90;52.40;;;;;;5113651;27;20762;-69
2020/12/20 06:44:15;;;;;;;1.67;1.57;;;21.90;52.90;;;;;;5113877;28;20418;-69
2020/12/20 06:46:40;;;;;;;1.57;1.30;;;21.90;52.40;;;;;;5113812;28;20465;-69
2020/12/20 06:49:31;;;;;;;1.70;1.60;;;21.80;52.30;;;;;;5113922;28;20486;-69
2020/12/20 06:52:43;;;;;;;1.80;1.43;;;21.90;52.40;;;;;;5112562;28;20229;-69
2020/12/20 06:55:19;;;;;;;2.53;1.60;;;21.80;52.80;;;;;;5031297;28;20467;-69
2020/12/20 06:58:03;;;;;;;2.20;1.50;;;21.80;52.90;;;;;;5108691;27;20794;-69
2020/12/20 07:00:43;;;;;;;1.73;1.60;;;21.90;52.40;;;;;;5113745;28;20410;-69
2020/12/20 07:03:32;;;;;;;1.50;1.40;;;21.80;52.30;;;;;;5113844;28;20517;-69
2020/12/20 07:06:07;;;;;;;1.80;1.60;;;21.80;52.30;;;;;;5100896;28;20911;-69
2020/12/20 07:08:34;;;;;;;1.30;1.20;;;21.90;52.40;;;;;;5113645;28;20398;-69
2020/12/20 07:11:02;;;;;;;2.70;1.60;;;21.90;52.40;;;;;;5113884;28;20399;-69
2020/12/20 07:13:42;;;;;;;2.27;1.73;;;21.80;52.30;;;;;;5113789;28;20510;-69
2020/12/20 07:16:13;;;;;;;1.93;1.20;;;21.90;52.40;;;;;;5113526;28;20414;-69
2020/12/20 07:18:55;;;;;;;1.70;1.30;;;21.90;52.40;;;;;;5113547;28;20383;-69
2020/12/20 07:21:24;;;;;;;1.93;1.33;;;21.90;52.40;;;;;;5113790;28;20410;-69
2020/12/20 07:24:10;;;;;;;1.50;1.40;;;21.90;52.40;;;;;;5113402;28;20480;-69
2020/12/20 07:26:36;;;;;;;1.50;1.40;;;21.90;52.40;;;;;;5113688;28;20526;-69
2020/12/20 07:29:04;;;;;;;1.40;1.30;;;21.90;52.30;;;;;;5113486;28;20832;-69
2020/12/20 07:31:29;;;;;;;3.03;1.60;;;21.90;52.40;;;;;;5113691;28;20521;-70
2020/12/20 07:33:55;;;;;;;3.87;2.17;;;21.90;52.40;;;;;;5113299;28;20414;-69
2020/12/20 07:36:22;;;;;;;3.00;1.57;;;21.90;52.30;;;;;;5113329;28;20171;-69
2020/12/20 07:38:48;;;;;;;2.10;1.53;;;21.90;52.30;;;;;;5113591;28;20169;-70
2020/12/20 07:41:16;;;;;;;2.83;1.80;;;22.00;52.30;;;;;;5113375;28;20494;-69
2020/12/20 07:43:42;;;;;;;2.40;1.27;;;22.00;52.30;;;;;;5113137;28;20418;-69
2020/12/20 07:46:10;;;;;;;3.20;1.60;;;22.00;52.30;;;;;;5111776;28;20450;-69
2020/12/20 07:48:37;;;;;;;1.97;1.33;;;22.00;52.30;;;;;;5113271;28;20394;-69
2020/12/20 07:51:26;;;;;;;2.73;1.50;;;22.00;52.30;;;;;;5113195;28;20399;-69
2020/12/20 07:53:53;;;;;;;2.13;1.30;;;22.00;52.20;;;;;;5113167;28;20948;-69
2020/12/20 07:56:22;;;;;;;2.83;1.50;;;22.00;52.30;;;;;;5113213;28;20763;-69
2020/12/20 07:58:48;;;;;;;2.93;1.80;;;21.90;52.20;;;;;;5113329;28;20439;-69
2020/12/20 08:01:14;;;;;;;3.07;1.90;;;22.00;52.20;;;;;;5113213;28;20485;-69
2020/12/20 08:03:40;;;;;;;2.47;1.80;;;21.90;51.90;;;;;;5113024;28;21043;-69
2020/12/20 08:06:13;;;;;;;3.87;1.97;;;21.90;51.80;;;;;;5113413;28;20647;-69
2020/12/20 08:08:41;;;;;;;2.70;1.50;;;22.00;51.90;;;;;;5113071;28;20172;-69
2020/12/20 08:11:26;;;;;;;1.50;1.40;;;21.90;51.80;;;;;;5113111;28;20585;-69
2020/12/20 08:13:54;;;;;;;2.80;1.67;;;22.00;51.90;;;;;;5112992;28;20418;-69
2020/12/20 08:16:28;;;;;;;4.50;1.70;;;21.90;52.00;;;;;;5113293;28;20481;-69
2020/12/20 08:19:07;;;;;;;2.00;1.80;;;21.90;52.00;;;;;;5113482;28;20448;-69
2020/12/20 08:22:00;;;;;;;3.30;1.70;;;21.90;52.00;;;;;;5116801;28;20389;-68
2020/12/20 08:24:37;;;;;;;2.43;1.70;;;21.90;52.00;;;;;;5117055;28;20399;-69
2020/12/20 08:27:13;;;;;;;2.10;1.50;;;21.90;52.00;;;;;;5116624;28;20564;-69
2020/12/20 08:29:39;;;;;;;3.47;1.93;;;21.90;52.10;;;;;;5116496;28;20406;-69
2020/12/20 08:32:13;;;;;;;3.70;1.23;;;21.90;52.10;;;;;;5116484;28;20479;-69
2020/12/20 08:34:39;;;;;;;3.37;1.70;;;21.90;52.10;;;;;;5116498;28;20571;-70
2020/12/20 08:37:12;;;;;;;2.00;1.37;;;21.90;52.10;;;;;;5115225;28;20415;-70
2020/12/20 08:39:38;;;;;;;1.90;1.70;;;21.90;52.10;;;;;;5116488;28;20402;-70
2020/12/20 08:42:09;;;;;;;2.00;1.33;;;21.90;52.10;;;;;;5116270;28;20507;-67
2020/12/20 08:44:35;;;;;;;1.63;1.53;;;21.90;52.10;;;;;;5116348;28;20387;-69
2020/12/20 08:47:12;;;;;;;1.77;1.53;;;21.90;52.10;;;;;;5115348;28;20438;-71
2020/12/20 08:49:38;;;;;;;3.70;1.50;;;21.90;52.10;;;;;;5116267;28;20478;-68
2020/12/20 08:52:12;;;;;;;3.37;1.57;;;21.90;52.10;;;;;;5116351;28;20437;-68
2020/12/20 08:54:39;;;;;;;3.43;2.13;;;21.90;52.10;;;;;;5116145;28;20398;-69
2020/12/20 08:57:12;;;;;;;4.13;1.90;;;21.90;52.10;;;;;;5116381;28;20411;-68
2020/12/20 08:59:45;;;;;;;4.70;2.80;;;21.90;52.10;;;;;;5116337;28;20395;-68
2020/12/20 09:02:37;;;;;;;5.23;2.10;;;21.90;52.10;;;;;;5114514;28;20437;-68
2020/12/20 09:05:10;;;;;;;5.47;3.60;;;21.90;52.10;;;;;;5111953;28;20454;-68
2020/12/20 09:07:40;;;;;;;9.00;3.10;;;21.90;51.70;;;;;;5115917;28;20447;-68
2020/12/20 09:10:18;;;;;;;4.40;3.43;;;21.90;51.30;;;;;;5115881;28;20833;-68
2020/12/20 09:12:54;;;;;;;5.07;3.43;;;21.90;51.30;;;;;;5115876;28;20849;-68
2020/12/20 09:15:34;;;;;;;5.80;3.77;;;21.90;51.20;;;;;;5115996;28;20905;-68
2020/12/20 09:18:12;;;;;;;5.33;2.90;;;21.90;51.30;;;;;;5114498;28;20475;-68
2020/12/20 09:20:42;;;;;;;4.47;2.23;;;21.90;52.00;;;;;;5115626;27;20406;-69
2020/12/20 09:23:22;;;;;;;8.23;3.13;;;21.80;51.40;;;;;;5115545;27;20475;-68
2020/12/20 09:25:49;;;;;;;5.00;3.10;;;21.90;51.50;;;;;;5115497;28;20447;-67
2020/12/20 09:28:25;;;;;;;7.00;2.83;;;21.80;51.40;;;;;;5115535;28;20435;-68
2020/12/20 09:30:52;;;;;;;6.47;2.60;;;21.90;51.50;;;;;;5115368;28;20410;-68
2020/12/20 09:33:22;;;;;;;4.83;2.80;;;21.90;51.60;;;;;;5115346;28;20872;-68
2020/12/20 09:36:05;;;;;;;10.03;3.67;;;21.90;51.60;;;;;;5115401;28;20870;-67
2020/12/20 09:38:37;;;;;;;9.97;5.30;;;21.90;51.60;;;;;;5115596;28;20394;-68
2020/12/20 09:41:05;;;;;;;6.10;3.90;;;21.90;51.60;;;;;;5115278;28;20387;-68
2020/12/20 09:43:31;;;;;;;8.37;4.20;;;21.90;51.60;;;;;;5115181;28;20959;-68
2020/12/20 09:45:58;;;;;;;7.13;4.33;;;21.90;51.60;;;;;;5115064;28;20446;-68
2020/12/20 09:48:25;;;;;;;5.93;3.77;;;21.90;51.60;;;;;;5113819;28;20442;-68
2020/12/20 09:50:50;;;;;;;6.43;3.93;;;21.90;51.50;;;;;;5115057;28;20399;-68
2020/12/20 09:53:16;;;;;;;11.53;3.83;;;21.90;51.50;;;;;;5114929;28;20423;-68
2020/12/20 09:55:42;;;;;;;8.00;4.57;;;21.90;51.50;;;;;;5115180;28;20173;-68
2020/12/20 09:58:12;;;;;;;9.30;3.57;;;21.90;51.50;;;;;;5115169;28;20653;-68
2020/12/20 10:00:39;;;;;;;7.27;3.33;;;21.90;51.40;;;;;;5115101;28;20169;-68
2020/12/20 10:03:05;;;;;;;6.73;3.67;;;21.90;51.40;;;;;;5113544;28;20443;-68
2020/12/20 10:05:31;;;;;;;8.80;3.60;;;21.90;51.50;;;;;;5113247;28;20526;-68
2020/12/20 10:07:57;;;;;;;6.30;3.77;;;21.90;51.50;;;;;;5113424;28;20497;-68
2020/12/20 10:10:22;;;;;;;6.83;3.30;;;21.90;51.50;;;;;;5114540;28;20157;-68
2020/12/20 10:12:48;;;;;;;5.43;3.50;;;21.90;51.50;;;;;;5114664;28;20608;-68
2020/12/20 10:15:14;;;;;;;5.80;3.10;;;21.90;51.50;;;;;;5114509;28;20225;-68
2020/12/20 10:17:40;;;;;;;6.00;3.17;;;21.90;51.50;;;;;;5114520;27;20207;-68
2020/12/20 10:20:05;;;;;;;4.20;3.30;;;21.80;51.50;;;;;;5114443;28;20773;-68
2020/12/20 10:22:31;;;;;;;4.87;3.27;;;21.90;51.60;;;;;;5114312;28;20567;-68
2020/12/20 10:24:56;;;;;;;5.83;2.90;;;21.80;51.50;;;;;;5112820;28;20546;-68
2020/12/20 10:27:22;;;;;;;7.73;4.50;;;21.90;51.60;;;;;;5114456;28;20189;-68
2020/12/20 10:29:48;;;;;;;5.17;3.33;;;21.90;51.60;;;;;;5114041;28;20197;-68
2020/12/20 10:32:14;;;;;;;4.37;2.93;;;21.90;51.60;;;;;;5114274;28;20472;-68
2020/12/20 10:34:40;;;;;;;5.70;3.57;;;21.90;51.70;;;;;;5114479;28;20607;-68
2020/12/20 10:37:06;;;;;;;4.60;2.90;;;21.90;51.70;;;;;;5114126;28;20176;-68
2020/12/20 10:39:32;;;;;;;5.33;3.00;;;21.90;51.70;;;;;;5114359;28;20945;-68
2020/12/20 10:41:58;;;;;;;6.83;3.10;;;21.90;51.60;;;;;;5113491;28;20434;-68
2020/12/20 10:44:23;;;;;;;5.93;3.10;;;21.90;51.60;;;;;;5113974;28;20188;-68
2020/12/20 10:46:50;;;;;;;5.07;3.67;;;21.90;51.50;;;;;;5113885;28;20196;-68
2020/12/20 10:49:17;;;;;;;4.83;3.57;;;21.90;51.50;;;;;;5113961;28;20164;-68
2020/12/20 10:51:43;;;;;;;7.97;3.70;;;21.90;51.50;;;;;;5113922;28;20754;-68
2020/12/20 10:54:09;;;;;;;5.27;3.07;;;21.90;52.10;;;;;;5113885;28;20486;-68
2020/12/20 10:56:34;;;;;;;4.20;2.90;;;21.90;51.50;;;;;;5113941;28;20467;-68
2020/12/20 10:59:00;;;;;;;3.90;2.57;;;21.90;51.50;;;;;;5113802;28;20229;-68
2020/12/20 11:01:25;;;;;;;8.00;2.90;;;21.90;51.60;;;;;;5113880;28;20175;-67
2020/12/20 11:03:51;;;;;;;3.37;2.60;;;21.90;51.60;;;;;;5113424;28;20196;-68
2020/12/20 11:06:23;;;;;;;8.57;3.40;;;21.90;51.60;;;;;;5113558;28;20197;-68
2020/12/20 11:08:50;;;;;;;4.53;3.00;;;21.90;51.60;;;;;;5113708;28;20244;-69
2020/12/20 11:11:17;;;;;;;3.90;3.10;;;22.00;51.70;;;;;;5113618;28;20559;-69
2020/12/20 11:13:43;;;;;;;5.40;2.70;;;22.00;51.70;;;;;;5113593;28;20507;-68
2020/12/20 11:16:18;;;;;;;3.97;3.03;;;22.00;51.70;;;;;;5113863;28;20438;-68
2020/12/20 11:18:46;;;;;;;5.30;2.90;;;22.00;51.60;;;;;;5114122;28;20897;-70
2020/12/20 11:21:16;;;;;;;4.23;2.83;;;22.00;51.60;;;;;;5112184;28;20438;-70
2020/12/20 11:23:43;;;;;;;4.60;3.00;;;22.10;51.70;;;;;;5113209;28;20462;-71
2020/12/20 11:26:10;;;;;;;5.27;2.97;;;22.00;51.70;;;;;;5110546;28;20452;-69
2020/12/20 11:28:36;;;;;;;6.90;2.80;;;22.10;51.70;;;;;;5111998;28;20407;-70
2020/12/20 11:31:02;;;;;;;5.60;3.10;;;22.10;51.70;;;;;;5112078;28;20470;-70
2020/12/20 11:33:28;;;;;;;3.33;3.03;;;22.10;51.70;;;;;;5112047;28;20450;-69
2020/12/20 11:35:53;;;;;;;7.30;3.47;;;22.10;51.70;;;;;;5111735;28;20172;-69
2020/12/20 11:38:19;;;;;;;2.83;2.40;;;22.10;51.70;;;;;;5111961;28;20173;-71
2020/12/20 11:40:44;;;;;;;4.57;3.00;;;22.10;51.70;;;;;;5113030;28;20157;-69
2020/12/20 11:43:10;;;;;;;4.83;3.63;;;22.10;51.60;;;;;;5113184;28;20280;-69
2020/12/20 11:45:36;;;;;;;4.90;2.60;;;22.10;51.60;;;;;;5113327;28;20196;-69
2020/12/20 11:48:01;;;;;;;4.70;2.63;;;22.10;51.60;;;;;;5113130;28;20169;-69
2020/12/20 11:50:27;;;;;;;6.30;2.50;;;22.10;51.60;;;;;;5113123;28;20198;-70
2020/12/20 11:52:53;;;;;;;4.47;2.97;;;22.10;51.60;;;;;;5113343;28;20493;-69
2020/12/20 11:55:18;;;;;;;4.30;2.60;;;22.10;51.60;;;;;;5115981;28;20165;-69
2020/12/20 11:57:44;;;;;;;3.27;2.57;;;22.10;51.60;;;;;;5098941;28;20587;-69
2020/12/20 12:04:15;;;;;;;3.87;2.53;;;22.20;51.70;;;;;;4917952;29;20764;-69
2020/12/20 12:06:44;;;;;;;2.97;2.33;;;22.10;51.70;;;;;;4948059;29;20461;-68
2020/12/20 12:09:10;;;;;;;6.07;3.07;;;22.10;51.70;;;;;;5027477;28;20299;-69
2020/12/20 12:11:35;;;;;;;4.90;3.13;;;22.10;51.70;;;;;;5017706;28;20402;-69
2020/12/20 12:14:02;;;;;;;7.17;2.97;;;22.10;51.70;;;;;;5034114;28;20199;-70
2020/12/20 12:16:27;;;;;;;3.63;2.80;;;22.10;51.70;;;;;;5034191;28;20199;-70
2020/12/20 12:18:53;;;;;;;4.70;2.43;;;22.10;51.70;;;;;;5034421;28;20927;-70
2020/12/20 12:21:18;;;;;;;3.87;2.53;;;22.10;51.70;;;;;;5034242;28;20184;-70
2020/12/20 12:23:45;;;;;;;3.60;2.47;;;22.10;51.70;;;;;;5034323;28;20249;-70
2020/12/20 12:26:11;;;;;;;7.00;2.70;;;22.10;51.70;;;;;;5034001;28;20290;-70
2020/12/20 12:28:37;;;;;;;8.23;2.97;;;22.10;51.70;;;;;;5034021;28;20402;-70
2020/12/20 12:31:03;;;;;;;4.23;2.60;;;22.10;51.70;;;;;;5033887;28;20509;-70
2020/12/20 12:33:29;;;;;;;4.10;2.80;;;22.10;51.70;;;;;;5033824;28;20208;-70
2020/12/20 12:35:55;;;;;;;4.70;3.30;;;22.10;51.70;;;;;;5033816;28;20552;-69
2020/12/20 12:38:20;;;;;;;4.60;2.80;;;22.10;51.70;;;;;;5034083;28;20222;-70
2020/12/20 12:40:46;;;;;;;4.50;2.40;;;22.10;51.80;;;;;;5087100;28;20177;-69
2020/12/20 12:43:12;;;;;;;3.93;2.50;;;22.10;51.70;;;;;;5116286;28;20275;-69
2020/12/20 12:45:37;;;;;;;4.73;2.70;;;22.10;51.70;;;;;;5116234;28;20183;-70
2020/12/20 12:48:06;;;;;;;4.73;2.57;;;22.10;51.70;;;;;;5116563;28;20193;-68
2020/12/20 12:50:33;;;;;;;3.10;2.80;;;22.10;51.60;;;;;;5116498;28;20169;-68
2020/12/20 12:52:59;;;;;;;11.10;3.03;;;22.10;51.70;;;;;;5115244;28;20476;-69
2020/12/20 12:55:26;;;;;;;3.10;2.63;;;22.10;51.70;;;;;;5115545;28;20909;-69